createdAt,value
2018-03-22T00:01:10.233Z,22.80
2018-03-22T00:03:37.845Z,23.17
2018-03-22T00:06:05.661Z,23.63
2018-03-22T00:08:33.436Z,22.70
2018-03-22T00:11:01.097Z,21.00
2018-03-22T00:13:28.889Z,21.40
2018-03-22T00:15:56.563Z,15.90
2018-03-22T00:18:24.150Z,24.20
2018-03-22T00:20:52.129Z,22.23
2018-03-22T00:23:20.004Z,23.00
2018-03-22T00:25:47.775Z,23.23
2018-03-22T00:28:15.554Z,22.77
2018-03-22T00:30:43.331Z,21.60
2018-03-22T00:33:11.001Z,22.07
2018-03-22T00:35:38.891Z,25.80
2018-03-22T00:38:06.553Z,24.73
2018-03-22T00:40:34.304Z,21.23
2018-03-22T00:43:02.120Z,26.47
2018-03-22T00:45:29.712Z,23.50
2018-03-22T00:47:57.359Z,25.80
2018-03-22T00:50:25.030Z,25.67
2018-03-22T00:52:52.721Z,28.40
2018-03-22T00:55:20.436Z,19.77
2018-03-22T00:57:48.277Z,22.40
2018-03-22T01:00:16.056Z,29.37
2018-03-22T01:02:43.731Z,23.47
2018-03-22T01:05:11.514Z,27.37
2018-03-22T01:07:39.181Z,28.37
2018-03-22T01:10:06.789Z,25.87
2018-03-22T01:12:34.634Z,26.80
2018-03-22T01:15:02.219Z,30.20
2018-03-22T01:17:29.987Z,26.57
2018-03-22T01:19:57.650Z,29.47
2018-03-22T01:22:25.439Z,26.57
2018-03-22T01:24:53.113Z,30.60
2018-03-22T01:27:20.765Z,25.93
2018-03-22T01:29:48.560Z,26.53
2018-03-22T01:32:16.312Z,22.47
2018-03-22T01:34:44.092Z,29.57
2018-03-22T01:37:11.901Z,28.87
2018-03-22T01:39:39.681Z,27.20
2018-03-22T01:42:07.328Z,29.37
2018-03-22T01:44:34.925Z,31.97
2018-03-22T01:47:02.710Z,28.50
2018-03-22T01:49:30.369Z,27.43
2018-03-22T01:51:58.051Z,30.57
2018-03-22T01:54:25.728Z,29.60
2018-03-22T01:56:53.512Z,29.57
2018-03-22T01:59:21.087Z,28.63
2018-03-22T02:01:48.871Z,28.87
2018-03-22T02:04:16.496Z,32.90
2018-03-22T02:06:44.316Z,28.63
2018-03-22T02:09:12.095Z,31.80
2018-03-22T02:11:39.672Z,32.83
2018-03-22T02:14:07.352Z,30.70
2018-03-22T02:16:35.002Z,32.00
2018-03-22T02:19:02.694Z,36.00
2018-03-22T02:21:30.365Z,34.63
2018-03-22T02:23:57.944Z,32.10
2018-03-22T02:26:25.529Z,34.30
2018-03-22T02:28:53.254Z,36.93
2018-03-22T02:31:20.956Z,30.97
2018-03-22T02:33:48.752Z,35.63
2018-03-22T02:36:16.413Z,36.47
2018-03-22T02:38:44.141Z,35.07
2018-03-22T02:41:11.726Z,35.37
2018-03-22T02:43:39.313Z,37.60
2018-03-22T02:46:07.124Z,35.70
2018-03-22T02:48:34.710Z,37.00
2018-03-22T02:51:02.312Z,39.90
2018-03-22T02:53:30.047Z,36.70
2018-03-22T02:55:57.786Z,38.57
2018-03-22T02:58:25.602Z,36.30
2018-03-22T03:00:53.481Z,35.13
2018-03-22T03:03:21.062Z,32.00
2018-03-22T03:05:48.724Z,38.17
2018-03-22T03:08:16.614Z,36.83
2018-03-22T03:10:44.280Z,35.13
2018-03-22T03:13:11.845Z,27.00
2018-03-22T03:15:39.526Z,39.23
2018-03-22T03:18:07.161Z,39.53
2018-03-22T03:20:34.809Z,36.70
2018-03-22T03:23:02.515Z,36.87
2018-03-22T03:25:30.338Z,36.47
2018-03-22T03:27:58.122Z,36.97
2018-03-22T03:30:25.960Z,29.20
2018-03-22T03:32:53.670Z,34.70
2018-03-22T03:35:21.340Z,40.83
2018-03-22T03:37:49.129Z,37.30
2018-03-22T03:40:16.905Z,40.83
2018-03-22T03:42:44.576Z,38.50
2018-03-22T03:45:12.324Z,43.73
2018-03-22T03:47:40.133Z,38.97
2018-03-22T03:50:07.909Z,41.97
2018-03-22T03:52:35.488Z,44.77
2018-03-22T03:55:03.133Z,40.40
2018-03-22T03:57:30.944Z,34.27
2018-03-22T03:59:58.732Z,42.70
2018-03-22T04:02:26.401Z,47.27
2018-03-22T04:04:54.169Z,45.10
2018-03-22T04:07:21.843Z,42.73
2018-03-22T04:09:49.454Z,41.23
2018-03-22T04:12:17.185Z,39.90
2018-03-22T04:14:44.872Z,33.60
2018-03-22T04:17:12.539Z,43.70
2018-03-22T04:19:40.175Z,38.83
2018-03-22T04:22:07.767Z,44.90
2018-03-22T04:24:35.470Z,37.87
2018-03-22T04:27:03.134Z,36.70
2018-03-22T04:29:30.725Z,40.60
2018-03-22T04:31:58.602Z,35.07
2018-03-22T04:34:26.259Z,25.40
2018-03-22T04:36:53.947Z,40.07
2018-03-22T04:39:21.830Z,38.00
2018-03-22T04:41:49.494Z,29.70
2018-03-22T04:44:17.280Z,35.87
2018-03-22T04:46:44.925Z,30.43
2018-03-22T04:49:12.495Z,30.50
2018-03-22T04:51:40.192Z,33.77
2018-03-22T04:54:07.917Z,26.77
2018-03-22T04:56:35.658Z,27.80
2018-03-22T04:59:03.306Z,30.20
2018-03-22T05:01:31.008Z,31.03
2018-03-22T05:03:58.682Z,30.63
2018-03-22T05:06:26.401Z,32.40
2018-03-22T05:08:54.140Z,32.07
2018-03-22T05:11:21.810Z,31.70
2018-03-22T05:13:49.593Z,34.87
2018-03-22T05:16:17.260Z,36.27
2018-03-22T05:18:44.925Z,34.87
2018-03-22T05:21:12.612Z,29.50
2018-03-22T05:23:40.279Z,31.70
2018-03-22T05:26:08.033Z,29.50
2018-03-22T05:28:35.739Z,23.60
2018-03-22T05:31:03.325Z,30.00
2018-03-22T05:33:30.980Z,33.87
2018-03-22T05:35:58.551Z,26.47
2018-03-22T05:38:26.348Z,33.43
2018-03-22T05:40:54.121Z,33.37
2018-03-22T05:43:21.775Z,28.87
2018-03-22T05:45:49.473Z,34.93
2018-03-22T05:48:17.256Z,33.27
2018-03-22T05:50:45.034Z,31.53
2018-03-22T05:53:13.525Z,35.13
2018-03-22T05:55:41.305Z,31.67
2018-03-22T05:58:09.081Z,31.27
2018-03-22T06:00:36.745Z,27.47
2018-03-22T06:03:04.532Z,36.03
2018-03-22T06:05:32.317Z,35.00
2018-03-22T06:07:59.979Z,34.87
2018-03-22T06:10:27.659Z,21.57
2018-03-22T06:12:55.245Z,30.40
2018-03-22T06:15:22.982Z,31.97
2018-03-22T06:17:50.581Z,25.27
2018-03-22T06:20:18.258Z,29.20
2018-03-22T06:22:45.987Z,26.40
2018-03-22T06:25:13.610Z,30.60
2018-03-22T06:27:41.278Z,27.17
2018-03-22T06:30:09.059Z,26.00
2018-03-22T06:32:36.680Z,27.20
2018-03-22T06:35:04.411Z,26.37
2018-03-22T06:37:32.162Z,27.83
2018-03-22T06:39:59.976Z,29.47
2018-03-22T06:42:27.568Z,25.30
2018-03-22T06:44:55.429Z,24.50
2018-03-22T06:47:23.093Z,28.10
2018-03-22T06:49:50.879Z,28.30
2018-03-22T06:52:18.507Z,26.90
2018-03-22T06:54:47.158Z,25.23
2018-03-22T06:57:14.833Z,25.00
2018-03-22T06:59:42.610Z,23.47
2018-03-22T07:02:10.325Z,24.10
2018-03-22T07:04:38.051Z,18.73
2018-03-22T07:07:05.722Z,23.30
2018-03-22T07:09:33.305Z,20.07
2018-03-22T07:12:01.093Z,20.20
2018-03-22T07:14:28.866Z,22.00
2018-03-22T07:16:56.636Z,21.90
2018-03-22T07:19:24.208Z,19.13
2018-03-22T07:21:51.888Z,20.03
2018-03-22T07:24:19.668Z,15.93
2018-03-22T07:26:47.347Z,19.33
2018-03-22T07:29:14.993Z,16.43
2018-03-22T07:31:42.596Z,18.20
2018-03-22T07:34:10.179Z,15.73
2018-03-22T07:36:37.950Z,15.30
2018-03-22T07:39:05.720Z,16.80
2018-03-22T07:41:33.465Z,14.80
2018-03-22T07:44:06.818Z,18.53
2018-03-22T07:46:34.590Z,15.33
2018-03-22T07:49:02.347Z,12.40
2018-03-22T07:51:30.025Z,15.73
2018-03-22T07:53:58.027Z,16.20
2018-03-22T07:56:25.762Z,15.43
2018-03-22T07:58:53.472Z,15.50
2018-03-22T08:01:21.052Z,13.30
2018-03-22T08:03:48.633Z,15.23
2018-03-22T08:06:16.294Z,16.10
2018-03-22T08:08:43.975Z,18.33
2018-03-22T08:11:11.620Z,14.20
2018-03-22T08:13:39.324Z,15.83
2018-03-22T08:16:06.999Z,14.97
2018-03-22T08:18:34.645Z,14.37
2018-03-22T08:21:02.458Z,13.70
2018-03-22T08:23:30.076Z,14.50
2018-03-22T08:25:58.009Z,13.27
2018-03-22T08:28:25.788Z,14.20
2018-03-22T08:30:53.517Z,13.70
2018-03-22T08:33:21.348Z,14.20
2018-03-22T08:35:49.224Z,12.77
2018-03-22T08:38:16.835Z,12.27
2018-03-22T08:40:44.448Z,11.90
2018-03-22T08:43:12.066Z,13.80
2018-03-22T08:45:39.719Z,14.33
2018-03-22T08:48:07.300Z,16.40
2018-03-22T08:50:34.961Z,14.67
2018-03-22T08:53:02.634Z,14.93
2018-03-22T08:55:30.313Z,14.97
2018-03-22T08:57:57.981Z,17.40
2018-03-22T09:00:25.654Z,15.33
2018-03-22T09:02:53.451Z,17.00
2018-03-22T09:05:21.109Z,15.10
2018-03-22T09:07:48.904Z,16.23
2018-03-22T09:10:16.728Z,18.43
2018-03-22T09:12:44.444Z,17.53
2018-03-22T09:15:12.238Z,18.80
2018-03-22T09:17:40.022Z,17.17
2018-03-22T09:20:07.649Z,15.87
2018-03-22T09:22:35.355Z,16.40
2018-03-22T09:25:03.037Z,16.30
2018-03-22T09:27:30.821Z,17.23
2018-03-22T09:29:58.698Z,17.33
2018-03-22T09:32:26.291Z,18.47
2018-03-22T09:34:53.960Z,15.47
2018-03-22T09:37:21.760Z,18.27
2018-03-22T09:39:49.330Z,16.60
2018-03-22T09:42:16.976Z,17.80
2018-03-22T09:44:44.618Z,15.60
2018-03-22T09:47:12.277Z,14.20
2018-03-22T09:49:40.105Z,16.27
2018-03-22T09:52:07.883Z,15.00
2018-03-22T09:54:35.508Z,15.37
2018-03-22T09:57:03.375Z,16.93
2018-03-22T09:59:31.103Z,15.87
2018-03-22T10:01:58.787Z,14.77
2018-03-22T10:04:26.518Z,14.87
2018-03-22T10:06:54.107Z,15.80
2018-03-22T10:09:21.919Z,12.67
2018-03-22T10:11:49.555Z,13.17
2018-03-22T10:14:17.141Z,17.17
2018-03-22T10:16:44.941Z,15.40
2018-03-22T10:19:12.607Z,15.83
2018-03-22T10:21:40.332Z,15.60
2018-03-22T10:24:08.074Z,16.43
2018-03-22T10:26:35.789Z,15.30
2018-03-22T10:29:03.515Z,13.27
2018-03-22T10:31:31.193Z,14.83
2018-03-22T10:33:58.979Z,13.10
2018-03-22T10:36:26.829Z,14.07
2018-03-22T10:38:54.462Z,11.63
2018-03-22T10:41:22.212Z,10.97
2018-03-22T10:43:49.800Z,11.83
2018-03-22T10:46:17.454Z,11.20
2018-03-22T10:48:45.132Z,11.47
2018-03-22T10:51:12.808Z,11.00
2018-03-22T10:53:40.460Z,10.83
2018-03-22T10:56:08.151Z,10.40
2018-03-22T10:58:35.729Z,9.57
2018-03-22T11:01:09.150Z,10.27
2018-03-22T11:03:42.446Z,11.80
2018-03-22T11:06:10.141Z,10.90
2018-03-22T11:08:37.792Z,15.77
2018-03-22T11:11:05.583Z,10.43
2018-03-22T11:13:33.247Z,9.63
2018-03-22T11:16:01.028Z,9.40
2018-03-22T11:18:28.626Z,9.97
2018-03-22T11:20:56.270Z,10.67
2018-03-22T11:23:23.943Z,9.30
2018-03-22T11:25:51.688Z,10.13
2018-03-22T11:28:19.342Z,8.70
2018-03-22T11:30:47.084Z,8.30
2018-03-22T11:33:14.663Z,6.57
2018-03-22T11:35:42.437Z,6.77
2018-03-22T11:38:10.222Z,7.13
2018-03-22T11:40:37.893Z,5.83
2018-03-22T11:43:05.706Z,6.37
2018-03-22T11:45:33.285Z,4.83
2018-03-22T11:48:01.027Z,4.57
2018-03-22T11:50:28.690Z,6.73
2018-03-22T11:52:56.419Z,5.33
2018-03-22T11:55:24.336Z,4.57
2018-03-22T11:57:52.079Z,5.17
2018-03-22T12:00:19.680Z,4.67
2018-03-22T12:02:47.377Z,5.47
2018-03-22T12:05:15.011Z,5.27
2018-03-22T12:07:42.673Z,4.10
2018-03-22T12:10:10.359Z,6.30
2018-03-22T12:12:38.081Z,5.57
2018-03-22T12:15:05.864Z,6.33
2018-03-22T12:17:33.535Z,5.37
2018-03-22T12:20:01.140Z,5.20
2018-03-22T12:22:28.848Z,5.70
2018-03-22T12:24:56.461Z,5.80
2018-03-22T12:27:24.132Z,3.77
2018-03-22T12:29:51.808Z,4.60
2018-03-22T12:32:19.599Z,3.80
2018-03-22T12:34:47.203Z,5.00
2018-03-22T12:37:14.931Z,3.90
2018-03-22T12:39:42.603Z,4.43
2018-03-22T12:42:10.185Z,3.03
2018-03-22T12:44:37.830Z,3.10
2018-03-22T12:47:05.435Z,2.33
2018-03-22T12:49:33.111Z,3.33
2018-03-22T12:52:00.752Z,3.77
2018-03-22T12:54:28.334Z,2.60
2018-03-22T12:56:55.977Z,3.77
2018-03-22T12:59:23.607Z,3.50
2018-03-22T13:01:51.283Z,3.17
2018-03-22T13:04:19.027Z,2.57
2018-03-22T13:06:46.629Z,2.43
2018-03-22T13:09:14.300Z,3.43
2018-03-22T13:11:41.878Z,2.37
2018-03-22T13:14:09.549Z,2.90
2018-03-22T13:16:37.444Z,2.60
2018-03-22T13:19:05.104Z,2.07
2018-03-22T13:21:32.901Z,2.90
2018-03-22T13:24:00.540Z,2.80
2018-03-22T13:26:28.347Z,2.60
2018-03-22T13:28:56.129Z,1.67
2018-03-22T13:31:23.774Z,2.33
2018-03-22T13:33:51.576Z,1.97
2018-03-22T13:36:19.167Z,2.20
2018-03-22T13:38:47.117Z,2.20
2018-03-22T13:41:14.812Z,2.40
2018-03-22T13:43:42.465Z,2.70
2018-03-22T13:46:10.159Z,1.70
2018-03-22T13:48:37.823Z,1.90
2018-03-22T13:51:05.564Z,2.17
2018-03-22T13:53:33.179Z,2.00
2018-03-22T13:56:00.805Z,2.37
2018-03-22T13:58:28.437Z,2.40
2018-03-22T14:00:56.222Z,1.60
2018-03-22T14:03:24.078Z,1.50
2018-03-22T14:05:51.755Z,1.90
2018-03-22T14:08:19.312Z,1.60
2018-03-22T14:10:47.044Z,1.60
2018-03-22T14:13:14.678Z,1.07
2018-03-22T14:15:42.255Z,2.00
2018-03-22T14:18:09.872Z,1.87
2018-03-22T14:20:37.437Z,1.50
2018-03-22T14:23:05.255Z,2.00
2018-03-22T14:25:32.867Z,2.30
2018-03-22T14:28:00.458Z,1.80
2018-03-22T14:30:28.100Z,1.70
2018-03-22T14:32:55.785Z,1.90
2018-03-22T14:35:23.567Z,2.20
2018-03-22T14:37:51.330Z,1.80
2018-03-22T14:40:19.130Z,1.97
2018-03-22T14:42:46.716Z,2.10
2018-03-22T14:45:14.579Z,1.93
2018-03-22T14:47:42.147Z,2.13
2018-03-22T14:50:09.727Z,1.80
2018-03-22T14:52:37.387Z,2.47
2018-03-22T14:55:05.195Z,1.87
2018-03-22T14:57:32.780Z,2.30
2018-03-22T15:00:00.417Z,2.00
2018-03-22T15:02:28.103Z,2.20
2018-03-22T15:04:55.721Z,1.80
2018-03-22T15:07:23.377Z,2.30
2018-03-22T15:09:51.126Z,1.10
2018-03-22T15:12:18.720Z,1.63
2018-03-22T15:14:46.889Z,1.43
2018-03-22T15:17:14.665Z,1.40
2018-03-22T15:19:42.445Z,1.33
2018-03-22T15:22:10.117Z,1.47
2018-03-22T15:24:37.891Z,1.60
2018-03-22T15:27:05.476Z,1.43
2018-03-22T15:29:33.109Z,1.90
2018-03-22T15:32:00.752Z,1.53
2018-03-22T15:34:28.332Z,1.90
2018-03-22T15:36:56.159Z,2.10
2018-03-22T15:39:23.950Z,1.97
2018-03-22T15:41:51.520Z,1.80
2018-03-22T15:44:19.195Z,1.83
2018-03-22T15:46:46.851Z,2.77
2018-03-22T15:49:14.658Z,2.50
2018-03-22T15:51:42.317Z,3.00
2018-03-22T15:54:10.107Z,2.40
2018-03-22T15:56:37.682Z,2.10
2018-03-22T15:59:05.561Z,2.30
2018-03-22T16:01:33.132Z,2.37
2018-03-22T16:04:00.800Z,2.47
2018-03-22T16:06:28.573Z,1.93
2018-03-22T16:08:56.362Z,2.63
2018-03-22T16:11:24.039Z,2.40
2018-03-22T16:13:51.710Z,1.97
2018-03-22T16:16:19.360Z,2.07
2018-03-22T16:18:47.167Z,2.20
2018-03-22T16:21:14.773Z,1.63
2018-03-22T16:23:42.407Z,2.10
2018-03-22T16:26:10.196Z,2.57
2018-03-22T16:28:37.873Z,2.00
2018-03-22T16:31:05.533Z,2.87
2018-03-22T16:33:33.223Z,1.90
2018-03-22T16:36:01.012Z,3.50
2018-03-22T16:38:28.879Z,2.50
2018-03-22T16:40:56.454Z,3.03
2018-03-22T16:43:24.128Z,1.90
2018-03-22T16:45:51.757Z,3.27
2018-03-22T16:48:19.478Z,3.63
2018-03-22T16:50:47.258Z,2.57
2018-03-22T16:53:15.034Z,2.73
2018-03-22T16:55:44.056Z,2.80
2018-03-22T16:58:11.664Z,3.20
2018-03-22T17:00:39.383Z,2.77
2018-03-22T17:03:07.165Z,2.70
2018-03-22T17:05:34.740Z,3.40
2018-03-22T17:08:02.624Z,4.10
2018-03-22T17:10:30.508Z,4.77
2018-03-22T17:12:58.086Z,3.43
2018-03-22T17:15:25.744Z,3.80
2018-03-22T17:17:53.414Z,3.10
2018-03-22T17:20:21.067Z,4.03
2018-03-22T17:22:49.001Z,4.60
2018-03-22T17:25:16.751Z,4.27
2018-03-22T17:27:44.325Z,3.40
2018-03-22T17:30:11.949Z,4.27
2018-03-22T17:32:39.604Z,4.13
2018-03-22T17:35:07.258Z,3.80
2018-03-22T17:37:34.933Z,3.77
2018-03-22T17:40:02.817Z,4.77
2018-03-22T17:42:30.594Z,5.67
2018-03-22T17:44:58.208Z,4.37
2018-03-22T17:47:25.828Z,5.83
2018-03-22T17:49:53.525Z,4.30
2018-03-22T17:52:21.401Z,4.67
2018-03-22T17:54:49.125Z,4.63
2018-03-22T17:57:16.952Z,4.20
2018-03-22T17:59:44.625Z,4.30
2018-03-22T18:02:12.349Z,4.67
2018-03-22T18:04:40.596Z,5.03
2018-03-22T18:07:08.375Z,5.00
2018-03-22T18:09:36.099Z,4.60
2018-03-22T18:12:03.891Z,5.10
2018-03-22T18:14:31.706Z,5.90
2018-03-22T18:16:59.382Z,5.93
2018-03-22T18:19:27.268Z,5.87
2018-03-22T18:21:55.144Z,6.00
2018-03-22T18:24:22.922Z,5.77
2018-03-22T18:26:50.668Z,5.37
2018-03-22T18:29:18.478Z,5.30
2018-03-22T18:31:46.198Z,5.03
2018-03-22T18:34:13.825Z,7.80
2018-03-22T18:36:42.325Z,6.23
2018-03-22T18:39:10.204Z,7.70
2018-03-22T18:41:37.944Z,8.70
2018-03-22T18:44:05.706Z,8.57
2018-03-22T18:46:33.848Z,8.60
2018-03-22T18:49:01.588Z,9.27
2018-03-22T18:51:29.292Z,11.30
2018-03-22T18:53:56.971Z,12.57
2018-03-22T18:56:24.750Z,12.93
2018-03-22T18:58:52.480Z,10.67
2018-03-22T19:01:20.309Z,14.37
2018-03-22T19:03:47.987Z,11.80
2018-03-22T19:06:15.759Z,20.33
2018-03-22T19:08:43.427Z,13.53
2018-03-22T19:11:11.112Z,17.10
2018-03-22T19:13:38.857Z,11.10
2018-03-22T19:16:06.978Z,12.73
2018-03-22T19:18:34.720Z,15.07
2018-03-22T19:21:02.532Z,16.27
2018-03-22T19:23:30.204Z,13.93
2018-03-22T19:25:58.089Z,15.27
2018-03-22T19:28:26.330Z,21.40
2018-03-22T19:30:54.159Z,18.70
2018-03-22T19:33:21.888Z,16.90
2018-03-22T19:35:49.714Z,15.13
2018-03-22T19:38:17.495Z,15.27
2018-03-22T19:40:45.342Z,13.97
2018-03-22T19:43:13.048Z,13.30
2018-03-22T19:45:40.711Z,13.80
2018-03-22T19:48:08.501Z,12.63
2018-03-22T19:50:36.269Z,13.03
2018-03-22T19:53:03.943Z,16.50
2018-03-22T19:55:31.731Z,14.23
2018-03-22T19:57:59.336Z,13.23
2018-03-22T20:00:27.295Z,14.87
2018-03-22T20:02:55.065Z,15.27
2018-03-22T20:05:22.846Z,17.53
2018-03-22T20:07:50.620Z,17.07
2018-03-22T20:10:18.397Z,14.80
2018-03-22T20:12:46.275Z,16.47
2018-03-22T20:15:14.060Z,15.80
2018-03-22T20:17:41.785Z,17.80
2018-03-22T20:20:09.814Z,17.30
2018-03-22T20:22:37.656Z,16.67
2018-03-22T20:25:05.478Z,17.40
2018-03-22T20:27:33.248Z,15.80
2018-03-22T20:30:01.034Z,18.23
2018-03-22T20:32:28.664Z,16.17
2018-03-22T20:34:56.426Z,16.07
2018-03-22T20:37:24.277Z,15.40
2018-03-22T20:39:52.040Z,13.03
2018-03-22T20:42:19.921Z,14.57
2018-03-22T20:44:49.134Z,17.93
2018-03-22T20:47:16.912Z,15.87
2018-03-22T20:49:44.692Z,17.30
2018-03-22T20:52:12.390Z,15.10
2018-03-22T20:54:40.144Z,14.37
2018-03-22T20:57:07.905Z,18.77
2018-03-22T20:59:35.668Z,18.30
2018-03-22T21:02:03.477Z,17.43
2018-03-22T21:04:31.155Z,19.23
2018-03-22T21:06:58.990Z,19.20
2018-03-22T21:09:26.640Z,20.73
2018-03-22T21:11:54.271Z,13.10
2018-03-22T21:14:22.015Z,18.80
2018-03-22T21:16:49.735Z,20.50
2018-03-22T21:19:17.496Z,22.37
2018-03-22T21:21:45.292Z,20.00
2018-03-22T21:24:13.070Z,21.43
2018-03-22T21:26:40.662Z,19.67
2018-03-22T21:29:08.535Z,19.97
2018-03-22T21:31:36.202Z,20.07
2018-03-22T21:34:03.977Z,22.63
2018-03-22T21:36:31.651Z,18.50
2018-03-22T21:38:59.437Z,17.10
2018-03-22T21:41:27.373Z,15.07
2018-03-22T21:44:07.067Z,13.33
2018-03-22T21:46:35.257Z,16.27
2018-03-22T21:49:02.932Z,15.50
2018-03-22T21:51:30.736Z,14.13
2018-03-22T21:53:58.483Z,13.70
2018-03-22T21:56:26.155Z,14.43
2018-03-22T21:58:53.945Z,14.30
2018-03-22T22:01:21.723Z,14.67
2018-03-22T22:03:49.391Z,16.37
2018-03-22T22:06:17.175Z,16.30
2018-03-22T22:08:44.955Z,16.87
2018-03-22T22:11:12.730Z,15.07
2018-03-22T22:13:40.459Z,16.70
2018-03-22T22:16:08.291Z,13.40
2018-03-22T22:18:36.015Z,16.80
2018-03-22T22:21:03.844Z,16.87
2018-03-22T22:23:31.467Z,17.57
2018-03-22T22:25:59.268Z,15.43
2018-03-22T22:28:27.079Z,15.77
2018-03-22T22:30:54.851Z,18.07
2018-03-22T22:33:22.630Z,15.23
2018-03-22T22:35:50.308Z,16.60
2018-03-22T22:38:18.187Z,16.83
2018-03-22T22:40:45.778Z,16.40
2018-03-22T22:43:13.438Z,15.50
2018-03-22T22:45:41.626Z,17.27
2018-03-22T22:48:09.298Z,17.00
2018-03-22T22:50:37.077Z,14.70
2018-03-22T22:53:04.858Z,16.93
2018-03-22T22:55:32.616Z,16.20
2018-03-22T22:58:00.412Z,15.83
2018-03-22T23:00:28.085Z,15.60
2018-03-22T23:02:55.815Z,14.73
2018-03-22T23:05:23.426Z,14.97
2018-03-22T23:07:51.677Z,17.93
2018-03-22T23:10:19.403Z,14.37
2018-03-22T23:12:47.079Z,15.17
2018-03-22T23:15:14.794Z,15.87
2018-03-22T23:17:42.489Z,14.53
2018-03-22T23:20:10.314Z,16.87
2018-03-22T23:22:37.982Z,16.97
2018-03-22T23:25:05.652Z,16.13
2018-03-22T23:27:33.442Z,15.93
2018-03-22T23:30:01.177Z,17.30
2018-03-22T23:32:28.995Z,14.07
2018-03-22T23:34:56.701Z,15.50
2018-03-22T23:37:24.859Z,14.47
2018-03-22T23:39:52.530Z,16.03
2018-03-22T23:42:20.185Z,16.87
2018-03-22T23:44:48.413Z,16.73
2018-03-22T23:47:16.177Z,15.43
2018-03-22T23:49:43.900Z,15.77
2018-03-22T23:52:11.623Z,16.70
2018-03-22T23:54:39.360Z,14.77
2018-03-22T23:57:07.076Z,14.40
2018-03-22T23:59:34.818Z,16.67
